Aplicació Alertes

Dades de l'estació automàtica Cadí Nord (2.143 m) - Prat d'Aguiló

?
?
Resum diari 23:00 TU
Dades diàries de l'estació meteorològica
Temperatura mitjana 3.6 °C
Temperatura màxima 7.3 °C 9:38 TU
Temperatura mínima 1.6 °C 4:38 TU
Humitat relativa mitjana 27%
Precipitació acumulada 0.0 mm
Gruix de neu màxim sense dades
Ratxa màxima del vent (10 m) 21.2 km/h - 239º 18:40 TU
Irradiació solar global 5.5 MJ/m2

El tram horari està expressat en Temps Universal (TU). Cal sumar una hora en horari d'hivern i dues en horari d'estiu per passar a l'hora oficial.

Cadí Nord (2.143 m) - Prat d'Aguiló

Metadades estació meteorol´gica
Municipi Montellà i Martinet
Comarca Cerdanya
Altitud 2143 m
Data alta 06.11.2003
Estat actual Operativa
Dades de període
Període
TU
TM
°C
TX
°C
TN
°C
HRM
%
PPT
mm
VVM (10 m)
km/h
DVM (10 m)
graus
VVX (10 m)
km/h
RS
W/m2
00:00 - 00:30 3.0 3.1 2.8 14 0.0 12.6 241 19.1 0
00:30 - 01:00 3.0 3.2 2.8 15 0.0 12.6 238 16.6 0
01:00 - 01:30 2.9 3.1 2.7 16 0.0 9.7 246 14.8 0
01:30 - 02:00 2.4 2.9 2.0 16 0.0 4.7 235 10.4 0
02:00 - 02:30 2.7 3.0 2.4 16 0.0 3.6 139 6.5 0
02:30 - 03:00 2.6 2.9 2.5 16 0.0 2.9 166 5.8 0
03:00 - 03:30 2.5 2.8 2.3 16 0.0 2.5 176 6.5 0
03:30 - 04:00 2.6 3.0 2.2 16 0.0 2.5 153 7.6 0
04:00 - 04:30 2.1 2.8 1.6 17 0.0 8.3 237 14.0 0
04:30 - 05:00 1.8 2.1 1.6 18 0.0 7.9 230 11.5 0
05:00 - 05:30 2.6 3.0 2.1 18 0.0 7.9 225 14.0 0
05:30 - 06:00 2.5 2.8 2.2 19 0.0 7.6 234 11.9 0
06:00 - 06:30 2.6 2.9 2.2 20 0.0 7.2 229 12.6 0
06:30 - 07:00 2.9 3.1 2.6 23 0.0 6.1 219 11.5 1
07:00 - 07:30 3.3 3.8 2.9 22 0.0 1.4 157 4.7 16
07:30 - 08:00 3.1 3.4 2.9 23 0.0 4.7 236 9.0 26
08:00 - 08:30 3.1 3.4 2.7 24 0.0 4.3 222 8.6 39
08:30 - 09:00 4.2 5.8 3.3 23 0.0 1.4 177 5.0 174
09:00 - 09:30 5.5 6.6 4.6 20 0.0 1.4 95 5.0 333
09:30 - 10:00 5.9 7.3 5.2 21 0.0 1.4 317 5.4 383
10:00 - 10:30 4.2 5.4 3.8 23 0.0 2.5 124 5.8 46
10:30 - 11:00 3.7 4.1 3.2 25 0.0 2.2 215 5.0 43
11:00 - 11:30 3.4 3.6 3.2 25 0.0 5.0 230 10.8 35
11:30 - 12:00 3.7 4.2 3.3 26 0.0 9.7 236 13.3 35
12:00 - 12:30 4.2 4.3 4.1 25 0.0 9.4 236 12.6 52
12:30 - 13:00 4.7 5.1 4.1 24 0.0 9.4 235 13.7 480
13:00 - 13:30 5.2 5.4 4.9 24 0.0 8.6 233 13.7 453
13:30 - 14:00 5.5 5.7 5.3 23 0.0 4.7 230 10.4 400
14:00 - 14:30 5.5 5.9 5.0 24 0.0 5.0 223 9.7 333
14:30 - 15:00 5.3 5.5 5.1 26 0.0 4.7 209 8.6 215
15:00 - 15:30 4.8 5.6 3.8 30 0.0 5.4 232 9.0 23
15:30 - 16:00 4.0 4.3 3.6 29 0.0 7.6 243 12.2 16
16:00 - 16:30 3.9 4.1 3.6 28 0.0 9.7 246 14.0 6
16:30 - 17:00 4.1 4.2 3.9 28 0.0 10.4 255 16.2 0
17:00 - 17:30 3.7 4.0 3.5 30 0.0 11.9 247 16.6 0
17:30 - 18:00 3.8 4.0 3.6 33 0.0 13.3 249 20.2 0
18:00 - 18:30 4.0 4.1 3.9 34 0.0 11.5 246 18.4 0
18:30 - 19:00 4.2 4.5 4.0 35 0.0 13.7 252 21.2 0
19:00 - 19:30 4.1 4.4 3.7 38 0.0 10.4 249 15.8 0
19:30 - 20:00 3.6 3.7 3.5 40 0.0 9.7 239 16.2 0
20:00 - 20:30 3.8 4.0 3.7 41 0.0 10.1 251 15.8 0
20:30 - 21:00 3.5 4.0 3.3 43 0.0 8.6 245 13.0 0
21:00 - 21:30 3.4 3.5 2.8 44 0.0 7.6 245 10.4 0
21:30 - 22:00 2.9 3.4 2.6 45 0.0 4.7 232 7.9 0
22:00 - 22:30 3.2 3.7 2.8 45 0.0 2.9 290 6.5 0
22:30 - 23:00 3.1 3.6 2.7 46 0.0 3.6 256 7.9 0
23:00 - 23:30 3.0 3.3 2.6 48 0.0 8.6 244 16.9 0

Les dades en taronja només han passat un control de qualitat automàtic. Resta pendent la seva validació definitiva.